createdAt,value
2022-12-06T00:01:28.888Z,2.25
2022-12-06T00:03:58.171Z,2.42
2022-12-06T00:06:27.609Z,2.23
2022-12-06T00:08:55.468Z,2.31
2022-12-06T00:11:27.114Z,2.20
2022-12-06T00:13:55.537Z,2.11
2022-12-06T00:16:23.652Z,2.30
2022-12-06T00:18:52.618Z,2.40
2022-12-06T00:21:22.034Z,2.30
2022-12-06T00:23:51.992Z,2.41
2022-12-06T00:26:21.316Z,2.33
2022-12-06T00:28:49.343Z,1.96
2022-12-06T00:31:18.799Z,1.95
2022-12-06T00:33:46.360Z,1.99
2022-12-06T00:36:18.408Z,2.09
2022-12-06T00:38:46.251Z,2.04
2022-12-06T00:41:15.313Z,2.10
2022-12-06T00:43:43.068Z,2.02
2022-12-06T00:46:13.951Z,2.18
2022-12-06T00:48:42.510Z,2.23
2022-12-06T00:51:10.071Z,2.15
2022-12-06T00:53:38.838Z,2.27
2022-12-06T00:56:06.907Z,2.13
2022-12-06T00:58:34.553Z,2.34
2022-12-06T01:01:09.205Z,2.19
2022-12-06T01:03:37.260Z,2.32
2022-12-06T01:06:05.690Z,2.13
2022-12-06T01:08:33.967Z,2.19
2022-12-06T01:11:03.765Z,2.20
2022-12-06T01:13:31.391Z,2.26
2022-12-06T01:16:05.741Z,2.23
2022-12-06T01:18:33.202Z,2.28
2022-12-06T01:21:04.607Z,2.11
2022-12-06T01:23:32.002Z,2.16
2022-12-06T01:25:59.475Z,2.28
2022-12-06T01:28:28.244Z,2.32
2022-12-06T01:30:55.826Z,2.23
2022-12-06T01:33:23.749Z,2.08
2022-12-06T01:35:51.278Z,2.14
2022-12-06T01:38:18.966Z,2.16
2022-12-06T01:40:48.679Z,2.05
2022-12-06T01:43:37.379Z,2.17
2022-12-06T01:46:11.663Z,2.24
2022-12-06T01:48:41.422Z,2.18
2022-12-06T01:51:10.335Z,2.03
2022-12-06T01:53:38.132Z,2.26
2022-12-06T01:56:06.185Z,2.37
2022-12-06T01:58:39.379Z,2.37
2022-12-06T02:01:08.058Z,2.26
2022-12-06T02:03:36.531Z,2.07
2022-12-06T02:06:06.057Z,2.32
2022-12-06T02:08:34.469Z,2.33
2022-12-06T02:11:02.802Z,2.22
2022-12-06T02:13:31.538Z,2.20
2022-12-06T02:16:06.566Z,2.29
2022-12-06T02:18:36.455Z,2.33
2022-12-06T02:21:13.429Z,2.40
2022-12-06T02:24:09.948Z,2.34
2022-12-06T02:26:40.540Z,2.40
2022-12-06T02:29:46.731Z,2.44
2022-12-06T02:32:18.542Z,2.46
2022-12-06T02:34:48.648Z,2.38
2022-12-06T02:37:24.018Z,2.32
2022-12-06T02:39:56.260Z,2.34
2022-12-06T02:42:25.737Z,2.35
2022-12-06T02:44:55.062Z,2.30
2022-12-06T02:47:28.482Z,2.33
2022-12-06T02:49:57.220Z,2.37
2022-12-06T02:52:27.135Z,2.38
2022-12-06T02:54:56.640Z,2.36
2022-12-06T02:57:34.880Z,2.34
2022-12-06T03:00:02.913Z,2.38
2022-12-06T03:02:33.682Z,2.42
2022-12-06T03:05:11.047Z,2.51
2022-12-06T03:07:41.607Z,2.51
2022-12-06T03:10:28.883Z,2.46
2022-12-06T03:13:03.095Z,2.46
2022-12-06T03:15:38.061Z,2.46
2022-12-06T03:18:12.093Z,2.43
2022-12-06T03:20:43.646Z,2.47
2022-12-06T03:23:14.870Z,2.46
2022-12-06T03:25:43.183Z,2.55
2022-12-06T03:28:12.535Z,2.62
2022-12-06T03:30:41.957Z,2.42
2022-12-06T03:33:11.182Z,2.33
2022-12-06T03:35:40.762Z,2.50
2022-12-06T03:38:14.535Z,2.55
2022-12-06T03:40:45.093Z,2.60
2022-12-06T03:43:12.615Z,2.34
2022-12-06T03:45:44.541Z,2.35
2022-12-06T03:48:15.110Z,2.48
2022-12-06T03:50:45.071Z,2.30
2022-12-06T03:53:12.602Z,2.22
2022-12-06T03:55:42.170Z,2.34
2022-12-06T03:58:09.597Z,2.38
2022-12-06T04:00:37.016Z,2.56
2022-12-06T04:03:04.547Z,2.56
2022-12-06T04:05:33.306Z,2.66
2022-12-06T04:08:00.751Z,2.66
2022-12-06T04:10:28.372Z,2.65
2022-12-06T04:13:02.150Z,2.71
2022-12-06T04:15:30.930Z,2.53
2022-12-06T04:18:16.368Z,2.60
2022-12-06T04:21:05.632Z,2.59
2022-12-06T04:23:36.195Z,2.55
2022-12-06T04:26:08.265Z,2.64
2022-12-06T04:28:53.638Z,2.51
2022-12-06T04:31:38.364Z,2.28
2022-12-06T04:34:23.706Z,2.52
2022-12-06T04:37:09.960Z,2.36
2022-12-06T04:39:37.404Z,2.16
2022-12-06T04:42:23.046Z,2.18
2022-12-06T04:44:50.514Z,2.12
2022-12-06T04:47:18.517Z,2.41
2022-12-06T04:49:46.075Z,2.32
2022-12-06T04:52:15.427Z,2.31
2022-12-06T04:54:43.045Z,2.32
2022-12-06T04:57:12.043Z,2.38
2022-12-06T04:59:40.775Z,2.46
2022-12-06T05:02:09.971Z,2.25
2022-12-06T05:04:37.394Z,2.25
2022-12-06T05:07:06.348Z,2.28
2022-12-06T05:09:35.147Z,2.33
2022-12-06T05:12:02.594Z,2.49
2022-12-06T05:14:30.210Z,2.53
2022-12-06T05:16:58.837Z,2.49
2022-12-06T05:19:27.220Z,2.61
2022-12-06T05:21:54.673Z,2.46
2022-12-06T05:24:22.198Z,2.59
2022-12-06T05:26:50.974Z,2.54
2022-12-06T05:29:19.712Z,2.55
2022-12-06T05:31:47.434Z,2.56
2022-12-06T05:34:14.943Z,2.64
2022-12-06T05:36:44.761Z,2.55
2022-12-06T05:39:12.300Z,2.67
2022-12-06T05:41:39.818Z,2.68
2022-12-06T05:44:10.543Z,2.36
2022-12-06T05:46:38.016Z,2.35
2022-12-06T05:49:06.016Z,2.49
2022-12-06T05:51:33.862Z,2.47
2022-12-06T05:54:03.340Z,2.49
2022-12-06T05:56:30.776Z,2.32
2022-12-06T05:58:58.198Z,2.43
2022-12-06T06:01:26.984Z,2.39
2022-12-06T06:03:54.550Z,2.19
2022-12-06T06:06:22.439Z,2.35
2022-12-06T06:08:49.967Z,2.55
2022-12-06T06:11:17.434Z,2.48
2022-12-06T06:13:44.878Z,2.37
2022-12-06T06:16:12.366Z,2.50
2022-12-06T06:18:41.209Z,2.53
2022-12-06T06:21:08.712Z,2.61
2022-12-06T06:23:36.172Z,2.49
2022-12-06T06:26:07.894Z,2.39
2022-12-06T06:28:35.364Z,2.33
2022-12-06T06:31:03.503Z,2.49
2022-12-06T06:33:30.968Z,2.40
2022-12-06T06:36:00.086Z,2.67
2022-12-06T06:38:27.521Z,2.57
2022-12-06T06:40:55.992Z,2.78
2022-12-06T06:43:23.508Z,2.62
2022-12-06T06:45:55.253Z,2.57
2022-12-06T06:48:23.515Z,2.53
2022-12-06T06:50:56.919Z,2.72
2022-12-06T06:53:27.536Z,2.83
2022-12-06T06:55:55.511Z,2.80
2022-12-06T06:58:22.995Z,2.79
2022-12-06T07:00:53.507Z,2.87
2022-12-06T07:03:21.047Z,2.79
2022-12-06T07:05:52.810Z,2.88
2022-12-06T07:08:20.427Z,2.95
2022-12-06T07:10:49.576Z,2.97
2022-12-06T07:13:17.048Z,2.93
2022-12-06T07:15:44.547Z,2.93
2022-12-06T07:18:11.994Z,2.89
2022-12-06T07:20:39.591Z,2.78
2022-12-06T07:23:07.022Z,2.87
2022-12-06T07:25:35.445Z,2.84
2022-12-06T07:28:04.737Z,2.87
2022-12-06T07:30:34.231Z,2.96
2022-12-06T07:33:02.004Z,2.92
2022-12-06T07:35:48.423Z,3.05
2022-12-06T07:38:16.929Z,3.12
2022-12-06T07:43:50.702Z,3.21
2022-12-06T07:46:18.273Z,3.20
2022-12-06T07:48:45.823Z,3.17
2022-12-06T07:51:13.293Z,3.13
2022-12-06T07:53:43.215Z,3.12
2022-12-06T07:56:10.819Z,3.16
2022-12-06T07:58:41.233Z,3.05
2022-12-06T08:01:08.780Z,3.05
2022-12-06T08:03:36.292Z,3.08
2022-12-06T08:06:03.865Z,3.14
2022-12-06T08:08:31.804Z,3.14
2022-12-06T08:10:59.915Z,3.28
2022-12-06T08:13:27.496Z,3.18
2022-12-06T08:15:57.017Z,3.28
2022-12-06T08:18:25.595Z,3.27
2022-12-06T08:20:53.696Z,3.32
2022-12-06T08:23:21.171Z,3.31
2022-12-06T08:25:48.623Z,3.42
2022-12-06T08:28:16.079Z,3.37
2022-12-06T08:30:43.764Z,3.52
2022-12-06T08:33:12.631Z,3.47
2022-12-06T08:35:40.135Z,3.56
2022-12-06T08:38:07.648Z,3.60
2022-12-06T08:40:35.108Z,3.57
2022-12-06T08:43:02.605Z,3.58
2022-12-06T08:45:30.043Z,3.63
2022-12-06T08:47:57.479Z,3.72
2022-12-06T08:50:26.330Z,3.84
2022-12-06T08:52:54.068Z,3.85
2022-12-06T08:55:21.590Z,3.87
2022-12-06T08:57:49.024Z,3.83
2022-12-06T09:00:20.576Z,3.94
2022-12-06T09:02:48.011Z,3.96
2022-12-06T09:05:15.623Z,3.80
2022-12-06T09:07:44.501Z,3.68
2022-12-06T09:10:12.671Z,3.86
2022-12-06T09:12:40.080Z,4.03
2022-12-06T09:15:08.302Z,3.93
2022-12-06T09:17:36.583Z,4.08
2022-12-06T09:20:09.050Z,4.21
2022-12-06T09:22:36.747Z,4.35
2022-12-06T09:25:06.287Z,4.41
2022-12-06T09:27:33.698Z,4.33
2022-12-06T09:30:01.649Z,4.43
2022-12-06T09:32:29.863Z,4.44
2022-12-06T09:34:57.359Z,4.29
2022-12-06T09:37:24.917Z,4.36
2022-12-06T09:39:55.495Z,4.44
2022-12-06T09:42:47.328Z,4.49
2022-12-06T09:45:27.940Z,4.47
2022-12-06T09:48:28.568Z,4.59
2022-12-06T09:51:06.350Z,4.47
2022-12-06T09:53:44.207Z,4.54
2022-12-06T09:56:16.674Z,4.64
2022-12-06T09:58:55.100Z,4.73
2022-12-06T10:01:28.321Z,4.80
2022-12-06T10:04:05.664Z,4.69
2022-12-06T10:06:39.939Z,4.64
2022-12-06T10:09:18.464Z,4.72
2022-12-06T10:11:58.138Z,4.55
2022-12-06T10:14:41.306Z,4.68
2022-12-06T10:17:13.448Z,4.54
2022-12-06T10:19:51.273Z,4.63
2022-12-06T10:22:23.652Z,4.78
2022-12-06T10:24:58.678Z,4.86
2022-12-06T10:27:31.311Z,4.85
2022-12-06T10:30:05.330Z,4.91
2022-12-06T10:32:52.775Z,4.89
2022-12-06T10:35:32.256Z,4.97
2022-12-06T10:38:07.424Z,5.01
2022-12-06T10:40:46.453Z,4.91
2022-12-06T10:43:19.521Z,4.86
2022-12-06T10:46:09.397Z,4.81
2022-12-06T10:48:40.519Z,4.73
2022-12-06T10:51:12.315Z,4.80
2022-12-06T10:53:43.787Z,4.78
2022-12-06T10:56:15.833Z,4.80
2022-12-06T10:58:46.574Z,4.89
2022-12-06T11:01:18.965Z,4.90
2022-12-06T11:03:58.700Z,4.95
2022-12-06T11:06:32.177Z,5.03
2022-12-06T11:09:06.308Z,5.11
2022-12-06T11:11:35.576Z,5.26
2022-12-06T11:14:05.810Z,5.28
2022-12-06T11:16:39.387Z,5.42
2022-12-06T11:19:26.431Z,5.39
2022-12-06T11:21:57.551Z,5.45
2022-12-06T11:24:29.307Z,5.44
2022-12-06T11:27:01.634Z,5.37
2022-12-06T11:29:29.805Z,5.08
2022-12-06T11:32:01.223Z,5.12
2022-12-06T11:34:31.984Z,5.02
2022-12-06T11:37:00.559Z,4.97
2022-12-06T11:39:28.792Z,5.08
2022-12-06T11:41:57.511Z,5.17
2022-12-06T11:44:27.784Z,5.11
2022-12-06T11:46:56.953Z,5.20
2022-12-06T11:49:29.136Z,5.29
2022-12-06T11:51:56.904Z,5.18
2022-12-06T11:54:27.713Z,5.14
2022-12-06T11:56:58.956Z,5.24
2022-12-06T11:59:28.461Z,5.30
2022-12-06T12:01:57.618Z,5.16
2022-12-06T12:04:38.192Z,5.06
2022-12-06T12:07:12.999Z,5.08
2022-12-06T12:09:51.842Z,5.01
2022-12-06T12:12:21.403Z,5.07
2022-12-06T12:14:55.063Z,5.14
2022-12-06T12:17:24.419Z,5.31
2022-12-06T12:19:58.940Z,5.21
2022-12-06T12:22:31.283Z,5.05
2022-12-06T12:27:48.902Z,5.13
2022-12-06T12:30:32.343Z,5.04
2022-12-06T12:33:30.147Z,4.99
2022-12-06T12:36:14.432Z,4.97
2022-12-06T12:38:43.648Z,4.98
2022-12-06T12:41:26.099Z,4.95
2022-12-06T12:44:35.903Z,4.83
2022-12-06T12:46:51.929Z,5.00
2022-12-06T12:49:25.442Z,5.21
2022-12-06T12:51:54.274Z,5.26
2022-12-06T12:54:27.043Z,5.14
2022-12-06T12:56:54.868Z,5.04
2022-12-06T12:59:24.115Z,4.97
2022-12-06T13:01:54.237Z,4.85
2022-12-06T13:04:31.816Z,4.97
2022-12-06T13:07:03.015Z,5.15
2022-12-06T13:09:34.363Z,5.09
2022-12-06T13:12:05.667Z,5.20
2022-12-06T13:14:34.303Z,5.32
2022-12-06T13:17:07.026Z,5.17
2022-12-06T13:19:36.879Z,5.28
2022-12-06T13:22:06.514Z,5.40
2022-12-06T13:24:34.506Z,5.41
2022-12-06T13:27:04.443Z,5.33
2022-12-06T13:29:35.340Z,5.29
2022-12-06T13:32:07.489Z,5.38
2022-12-06T13:34:38.476Z,5.19
2022-12-06T13:37:27.053Z,5.21
2022-12-06T13:39:56.513Z,5.01
2022-12-06T13:42:41.918Z,4.77
2022-12-06T13:45:40.798Z,4.84
2022-12-06T13:48:38.171Z,4.91
2022-12-06T13:51:10.881Z,4.84
2022-12-06T13:54:36.451Z,4.79
2022-12-06T13:57:22.833Z,4.83
2022-12-06T13:59:50.337Z,4.79
2022-12-06T14:02:44.724Z,4.71
2022-12-06T14:08:17.146Z,4.73
2022-12-06T14:10:44.783Z,4.82
2022-12-06T14:13:21.771Z,4.68
2022-12-06T14:15:51.478Z,4.58
2022-12-06T14:18:21.910Z,4.73
2022-12-06T14:20:50.768Z,4.62
2022-12-06T14:23:27.098Z,4.60
2022-12-06T14:26:16.275Z,4.67
2022-12-06T14:28:45.086Z,4.58
2022-12-06T14:31:20.980Z,4.69
2022-12-06T14:33:49.063Z,4.60
2022-12-06T14:36:20.471Z,4.60
2022-12-06T14:38:57.596Z,4.55
2022-12-06T14:41:48.603Z,4.54
2022-12-06T14:44:19.406Z,4.52
2022-12-06T14:46:47.953Z,4.51
2022-12-06T14:49:36.265Z,4.57
2022-12-06T14:52:04.143Z,4.64
2022-12-06T14:54:34.889Z,4.55
2022-12-06T14:57:02.587Z,4.49
2022-12-06T15:02:23.272Z,4.29
2022-12-06T15:04:51.866Z,4.46
2022-12-06T15:07:33.770Z,4.57
2022-12-06T15:10:10.897Z,4.49
2022-12-06T15:12:55.966Z,4.55
2022-12-06T15:15:36.787Z,4.41
2022-12-06T15:18:13.725Z,4.35
2022-12-06T15:20:41.808Z,4.31
2022-12-06T15:23:28.744Z,4.40
2022-12-06T15:25:56.296Z,4.27
2022-12-06T15:28:23.919Z,4.27
2022-12-06T15:30:52.969Z,4.29
2022-12-06T15:33:22.650Z,4.28
2022-12-06T15:35:51.029Z,4.11
2022-12-06T15:38:19.114Z,4.07
2022-12-06T15:40:48.620Z,4.17
2022-12-06T15:43:24.692Z,4.18
2022-12-06T15:45:54.845Z,4.07
2022-12-06T15:48:22.808Z,4.10
2022-12-06T15:50:50.187Z,4.15
2022-12-06T15:53:20.408Z,4.17
2022-12-06T15:55:48.119Z,4.24
2022-12-06T15:58:15.651Z,4.26
2022-12-06T16:00:43.517Z,4.10
2022-12-06T16:03:12.334Z,4.08
2022-12-06T16:05:40.139Z,4.07
2022-12-06T16:08:07.629Z,4.02
2022-12-06T16:11:03.393Z,4.00
2022-12-06T16:13:23.547Z,4.01
2022-12-06T16:15:52.576Z,3.85
2022-12-06T16:18:22.019Z,3.76
2022-12-06T16:20:49.528Z,3.91
2022-12-06T16:24:10.915Z,4.02
2022-12-06T16:26:24.254Z,3.87
2022-12-06T16:28:51.680Z,3.97
2022-12-06T16:31:19.115Z,3.92
2022-12-06T16:33:47.901Z,4.05
2022-12-06T16:36:19.036Z,4.13
2022-12-06T16:38:47.823Z,4.05
2022-12-06T16:41:19.936Z,4.05
2022-12-06T16:43:47.484Z,4.05
2022-12-06T16:46:22.557Z,4.06
2022-12-06T16:48:55.718Z,4.25
2022-12-06T16:51:23.992Z,4.09
2022-12-06T16:53:51.520Z,4.05
2022-12-06T16:56:19.253Z,3.84
2022-12-06T16:58:46.695Z,3.91
2022-12-06T17:01:42.227Z,3.95
2022-12-06T17:04:11.224Z,3.89
2022-12-06T17:06:41.482Z,3.85
2022-12-06T17:09:09.043Z,3.85
2022-12-06T17:11:54.510Z,3.74
2022-12-06T17:14:25.030Z,3.66
2022-12-06T17:16:53.350Z,3.70
2022-12-06T17:19:23.954Z,3.58
2022-12-06T17:21:53.031Z,3.62
2022-12-06T17:24:21.534Z,3.60
2022-12-06T17:26:49.359Z,3.68
2022-12-06T17:29:17.592Z,3.69
2022-12-06T17:31:45.140Z,3.69
2022-12-06T17:34:14.040Z,3.59
2022-12-06T17:36:43.767Z,3.50
2022-12-06T17:39:13.832Z,3.45
2022-12-06T17:41:58.615Z,3.26
2022-12-06T17:44:26.514Z,3.18
2022-12-06T17:46:54.435Z,3.05
2022-12-06T17:49:23.630Z,3.17
2022-12-06T17:51:52.528Z,3.11
2022-12-06T17:54:20.595Z,3.13
2022-12-06T17:56:49.861Z,3.25
2022-12-06T17:59:18.955Z,3.31
2022-12-06T18:04:34.554Z,3.49
2022-12-06T18:07:03.418Z,3.33
2022-12-06T18:09:30.869Z,3.42
2022-12-06T18:11:58.502Z,3.46
2022-12-06T18:14:25.960Z,3.50
2022-12-06T18:16:53.820Z,3.58
2022-12-06T18:19:22.143Z,3.48
2022-12-06T18:21:51.992Z,3.50
2022-12-06T18:24:23.846Z,3.41
2022-12-06T18:26:53.135Z,3.49
2022-12-06T18:29:22.508Z,3.37
2022-12-06T18:31:50.448Z,3.50
2022-12-06T18:34:18.351Z,3.49
2022-12-06T18:36:45.938Z,3.47
2022-12-06T18:39:15.835Z,3.62
2022-12-06T18:41:45.551Z,3.51
2022-12-06T18:44:13.316Z,3.38
2022-12-06T18:46:41.870Z,3.53
2022-12-06T18:49:11.678Z,3.36
2022-12-06T18:51:39.618Z,3.50
2022-12-06T18:54:07.977Z,3.68
2022-12-06T18:56:36.370Z,3.71
2022-12-06T18:59:08.493Z,3.86
2022-12-06T19:01:38.500Z,4.09
2022-12-06T19:04:07.851Z,4.06
2022-12-06T19:06:37.072Z,4.12
2022-12-06T19:09:06.791Z,4.12
2022-12-06T19:11:36.877Z,4.21
2022-12-06T19:14:06.330Z,4.24
2022-12-06T19:16:35.974Z,4.09
2022-12-06T19:19:07.980Z,4.08
2022-12-06T19:21:39.048Z,4.09
2022-12-06T19:24:07.321Z,4.09
2022-12-06T19:26:35.346Z,4.25
2022-12-06T19:29:03.346Z,4.29
2022-12-06T19:31:33.111Z,4.39
2022-12-06T19:34:00.668Z,4.27
2022-12-06T19:36:29.878Z,4.11
2022-12-06T19:39:01.129Z,4.25
2022-12-06T19:41:31.291Z,4.17
2022-12-06T19:44:17.072Z,3.88
2022-12-06T19:46:47.383Z,3.59
2022-12-06T19:49:15.852Z,3.85
2022-12-06T19:51:45.832Z,3.72
2022-12-06T19:54:15.983Z,3.87
2022-12-06T19:56:43.455Z,3.92
2022-12-06T19:59:12.250Z,3.80
2022-12-06T20:01:40.672Z,3.98
2022-12-06T20:04:10.475Z,4.17
2022-12-06T20:06:38.855Z,3.68
2022-12-06T20:09:06.362Z,3.74
2022-12-06T20:11:54.319Z,3.78
2022-12-06T20:14:22.916Z,3.93
2022-12-06T20:16:50.681Z,3.68
2022-12-06T20:19:20.814Z,3.86
2022-12-06T20:21:48.577Z,4.05
2022-12-06T20:24:20.447Z,4.20
2022-12-06T20:26:50.125Z,4.13
2022-12-06T20:29:18.689Z,4.20
2022-12-06T20:31:47.936Z,4.13
2022-12-06T20:34:15.876Z,4.17
2022-12-06T20:36:45.012Z,4.32
2022-12-06T20:39:19.107Z,4.29
2022-12-06T20:41:46.541Z,4.21
2022-12-06T20:44:14.019Z,4.11
2022-12-06T20:46:41.553Z,4.28
2022-12-06T20:49:10.378Z,4.16
2022-12-06T20:51:38.513Z,4.03
2022-12-06T20:54:08.862Z,4.20
2022-12-06T20:56:38.992Z,4.31
2022-12-06T20:59:07.708Z,4.01
2022-12-06T21:01:36.937Z,4.09
2022-12-06T21:04:04.589Z,4.05
2022-12-06T21:06:32.018Z,4.12
2022-12-06T21:08:59.603Z,3.99
2022-12-06T21:11:28.467Z,4.04
2022-12-06T21:14:02.239Z,3.85
2022-12-06T21:16:31.388Z,3.95
2022-12-06T21:19:00.596Z,4.05
2022-12-06T21:21:29.847Z,3.96
2022-12-06T21:23:59.641Z,4.11
2022-12-06T21:26:28.752Z,4.18
2022-12-06T21:28:57.426Z,4.03
2022-12-06T21:31:27.162Z,4.21
2022-12-06T21:33:54.615Z,4.19
2022-12-06T21:36:22.065Z,4.09
2022-12-06T21:38:49.532Z,4.21
2022-12-06T21:41:17.144Z,4.08
2022-12-06T21:43:45.957Z,4.02
2022-12-06T21:46:14.952Z,4.02
2022-12-06T21:48:45.726Z,4.17
2022-12-06T21:51:15.315Z,4.15
2022-12-06T21:53:42.905Z,4.29
2022-12-06T21:56:18.592Z,4.04
2022-12-06T21:58:47.902Z,4.13
2022-12-06T22:01:16.664Z,4.15
2022-12-06T22:03:44.472Z,4.19
2022-12-06T22:06:13.773Z,4.10
2022-12-06T22:08:42.500Z,4.12
2022-12-06T22:11:11.735Z,4.16
2022-12-06T22:13:39.213Z,4.12
2022-12-06T22:16:10.231Z,4.09
2022-12-06T22:18:44.353Z,4.12
2022-12-06T22:21:15.595Z,4.22
2022-12-06T22:23:43.052Z,4.07
2022-12-06T22:26:13.499Z,4.08
2022-12-06T22:28:40.934Z,4.00
2022-12-06T22:31:11.717Z,4.00
2022-12-06T22:33:39.358Z,3.98
2022-12-06T22:36:08.097Z,4.07
2022-12-06T22:38:35.676Z,4.10
2022-12-06T22:41:03.664Z,4.08
2022-12-06T22:43:31.780Z,4.21
2022-12-06T22:46:04.833Z,4.15
2022-12-06T22:48:35.126Z,4.32
2022-12-06T22:51:13.280Z,4.31
2022-12-06T22:53:41.620Z,4.34
2022-12-06T22:56:09.503Z,4.49
2022-12-06T22:58:37.292Z,4.50
2022-12-06T23:01:15.947Z,4.36
2022-12-06T23:03:46.144Z,4.21
2022-12-06T23:06:13.714Z,4.42
2022-12-06T23:08:41.313Z,4.36
2022-12-06T23:11:10.729Z,4.16
2022-12-06T23:13:38.304Z,4.21
2022-12-06T23:16:08.654Z,4.04
2022-12-06T23:18:36.065Z,4.18
2022-12-06T23:21:07.203Z,4.11
2022-12-06T23:23:34.987Z,4.16
2022-12-06T23:26:03.564Z,4.13
2022-12-06T23:28:31.267Z,4.15
2022-12-06T23:31:03.258Z,4.29
2022-12-06T23:33:32.356Z,4.41
2022-12-06T23:36:06.609Z,4.31
2022-12-06T23:38:34.275Z,4.45
2022-12-06T23:41:03.159Z,4.52
2022-12-06T23:43:30.654Z,4.51
2022-12-06T23:46:02.058Z,4.53
2022-12-06T23:48:33.804Z,4.54
2022-12-06T23:51:02.224Z,4.57
2022-12-06T23:53:31.631Z,4.54
2022-12-06T23:55:59.998Z,4.53
2022-12-06T23:58:28.032Z,4.60
